Time;durP1;ratioP1;P1;durP2;ratioP2;P2;SDS_P1;SDS_P2;PMS_P1;PMS_P2;Temp;Humidity;BMP_temperature;BMP_pressure;BME280_temperature;BME280_humidity;BME280_pressure;Samples;Min_cycle;Max_cycle;Signal;HPM_P1;HPM_P2
2021/04/28 00:00:22;;;;;;;16.67;12.80;;;5.50;99.90;4.60;96190.00;;;;5086258;28;20436;-68
2021/04/28 00:03:12;;;;;;;20.97;14.07;;;5.50;99.90;4.60;96176.00;;;;5085599;28;20445;-68
2021/04/28 00:06:00;;;;;;;13.77;12.37;;;5.50;99.90;4.60;96174.00;;;;5086455;28;20433;-68
2021/04/28 00:08:48;;;;;;;16.10;12.07;;;5.50;99.90;4.70;96176.00;;;;5084828;28;20791;-68
2021/04/28 00:11:36;;;;;;;20.53;14.33;;;5.50;99.90;4.70;96175.00;;;;5087195;28;20246;-67
2021/04/28 00:14:25;;;;;;;21.50;14.87;;;5.50;99.90;4.70;96171.00;;;;5084798;28;20210;-67
2021/04/28 00:17:14;;;;;;;16.70;12.40;;;5.50;99.90;4.70;96164.00;;;;5086780;28;20207;-68
2021/04/28 00:20:05;;;;;;;14.17;12.10;;;5.50;99.90;4.70;96165.00;;;;5085775;28;20249;-68
2021/04/28 00:22:53;;;;;;;13.73;10.87;;;5.60;99.90;4.70;96161.00;;;;5086311;28;20256;-66
2021/04/28 00:25:44;;;;;;;15.57;12.23;;;5.50;99.90;4.70;96165.00;;;;5085826;28;21143;-67
2021/04/28 00:28:33;;;;;;;14.70;12.10;;;5.50;99.90;4.60;96151.00;;;;5085667;28;20203;-68
2021/04/28 00:31:21;;;;;;;18.50;11.77;;;5.50;99.90;4.60;96149.00;;;;5085696;28;20223;-68
2021/04/28 00:34:10;;;;;;;15.27;11.90;;;5.50;99.90;4.60;96152.00;;;;5085842;28;20207;-67
2021/04/28 00:36:57;;;;;;;16.80;13.00;;;5.50;99.90;4.60;96137.00;;;;5077865;28;20207;-66
2021/04/28 00:39:46;;;;;;;16.47;13.07;;;5.50;99.90;4.50;96139.00;;;;5086605;28;20230;-67
2021/04/28 00:42:35;;;;;;;15.03;11.23;;;5.40;99.90;4.60;96139.00;;;;5104821;28;20230;-68
2021/04/28 00:45:25;;;;;;;17.77;12.73;;;5.40;99.90;4.50;96137.00;;;;5097859;28;20210;-66
2021/04/28 00:48:13;;;;;;;18.80;12.43;;;5.40;99.90;4.60;96128.00;;;;5085282;28;20196;-69
2021/04/28 00:51:03;;;;;;;15.90;13.13;;;5.40;99.90;4.60;96124.00;;;;5085712;28;20227;-68
2021/04/28 00:53:51;;;;;;;16.97;12.73;;;5.40;99.90;4.50;96125.00;;;;5085528;28;20207;-68
2021/04/28 00:56:39;;;;;;;22.40;13.70;;;5.40;99.90;4.60;96127.00;;;;5085072;28;20203;-66
2021/04/28 00:59:28;;;;;;;18.93;13.27;;;5.40;99.90;4.60;96126.00;;;;5105215;28;20205;-67
2021/04/28 01:02:16;;;;;;;16.30;13.03;;;5.40;99.90;4.60;96128.00;;;;5105420;28;20230;-68
2021/04/28 01:05:07;;;;;;;18.67;12.97;;;5.40;99.90;4.60;96127.00;;;;5104317;28;20203;-67
2021/04/28 01:07:56;;;;;;;19.83;13.10;;;5.40;99.90;4.50;96128.00;;;;5104270;28;20669;-67
2021/04/28 01:10:45;;;;;;;23.20;13.10;;;5.40;99.90;4.50;96123.00;;;;5105338;28;20433;-68
2021/04/28 01:13:34;;;;;;;17.77;13.77;;;5.40;99.90;4.50;96117.00;;;;5105082;28;20205;-67
2021/04/28 01:16:23;;;;;;;15.77;13.00;;;5.40;99.90;4.50;96126.00;;;;5104833;28;20202;-69
2021/04/28 01:19:11;;;;;;;17.87;12.67;;;5.40;99.90;4.40;96122.00;;;;5108408;28;20595;-68
2021/04/28 01:21:59;;;;;;;17.27;13.17;;;5.30;99.90;4.40;96120.00;;;;5105708;28;20562;-66
2021/04/28 01:24:49;;;;;;;16.83;12.77;;;5.30;99.90;4.40;96114.00;;;;5104541;28;20424;-67
2021/04/28 01:27:41;;;;;;;18.03;13.23;;;5.30;99.90;4.30;96115.00;;;;5104284;28;20280;-68
2021/04/28 01:30:35;;;;;;;14.93;11.33;;;5.30;99.90;4.20;96119.00;;;;5104393;28;20959;-66
2021/04/28 01:33:28;;;;;;;16.03;12.70;;;5.20;99.90;4.30;96112.00;;;;5105019;28;20436;-66
2021/04/28 01:36:19;;;;;;;18.83;12.53;;;5.20;99.90;4.30;96113.00;;;;5105840;28;20437;-70
2021/04/28 01:39:10;;;;;;;20.07;12.30;;;5.20;99.90;4.40;96113.00;;;;5105080;28;20958;-67
2021/04/28 01:41:59;;;;;;;15.80;13.17;;;5.20;99.90;4.40;96113.00;;;;5118356;28;20874;-68
2021/04/28 01:44:49;;;;;;;16.53;12.80;;;5.20;99.90;4.30;96107.00;;;;5103838;28;20436;-68
2021/04/28 01:47:36;;;;;;;17.17;12.83;;;5.20;99.90;4.30;96102.00;;;;5104419;28;20198;-67
2021/04/28 01:50:25;;;;;;;17.33;12.90;;;5.20;99.90;4.30;96096.00;;;;5104808;28;20787;-67
2021/04/28 01:53:14;;;;;;;16.07;12.90;;;5.20;99.90;4.30;96106.00;;;;5105302;28;20432;-69
2021/04/28 01:56:02;;;;;;;15.77;12.53;;;5.20;99.90;4.30;96104.00;;;;5104482;28;20199;-69
2021/04/28 01:58:53;;;;;;;15.63;12.23;;;5.20;99.90;4.40;96102.00;;;;5106597;28;20210;-69
2021/04/28 02:01:43;;;;;;;13.23;11.43;;;5.20;99.90;4.40;96102.00;;;;5104669;28;20484;-67
2021/04/28 02:04:32;;;;;;;15.57;11.83;;;5.20;99.90;4.40;96102.00;;;;5104651;28;20444;-69
2021/04/28 02:07:21;;;;;;;17.03;11.90;;;5.20;99.90;4.40;96094.00;;;;5103844;28;20416;-68
2021/04/28 02:10:11;;;;;;;16.80;14.07;;;5.30;99.90;4.40;96099.00;;;;5104807;28;20657;-68
2021/04/28 02:12:59;;;;;;;15.30;13.13;;;5.30;99.90;4.50;96094.00;;;;5103770;28;20450;-67
2021/04/28 02:15:50;;;;;;;16.80;11.97;;;5.30;99.90;4.40;96086.00;;;;5104326;28;20215;-68
2021/04/28 02:18:40;;;;;;;14.00;12.13;;;5.30;99.90;4.50;96086.00;;;;5108868;27;21004;-68
2021/04/28 02:21:28;;;;;;;16.20;11.60;;;5.30;99.90;4.40;96091.00;;;;5108315;28;20468;-68
2021/04/28 02:24:16;;;;;;;13.73;11.67;;;5.30;99.90;4.40;96083.00;;;;5107713;28;20211;-69
2021/04/28 02:27:05;;;;;;;15.67;12.03;;;5.30;99.90;4.40;96083.00;;;;5108424;28;20238;-67
2021/04/28 02:29:55;;;;;;;15.73;12.27;;;5.30;99.90;4.30;96083.00;;;;5108399;28;20206;-68
2021/04/28 02:32:45;;;;;;;13.77;11.43;;;5.30;99.90;4.30;96090.00;;;;5107297;27;20254;-67
2021/04/28 02:35:33;;;;;;;15.13;12.40;;;5.20;99.90;4.30;96079.00;;;;5123533;27;20813;-69
2021/04/28 02:38:30;;;;;;;20.17;11.90;;;5.20;99.90;4.30;96074.00;;;;5118447;27;20447;-69
2021/04/28 02:41:18;;;;;;;18.80;12.47;;;5.20;99.90;4.20;96071.00;;;;5107155;28;20231;-67
2021/04/28 02:44:07;;;;;;;18.47;14.10;;;5.20;99.90;4.30;96067.00;;;;5110794;27;20435;-68
2021/04/28 02:46:58;;;;;;;17.63;13.30;;;5.20;99.90;4.30;96066.00;;;;5114217;27;20439;-68
2021/04/28 02:49:48;;;;;;;18.13;12.80;;;5.20;99.90;4.30;96070.00;;;;5106380;28;20424;-68
2021/04/28 02:52:37;;;;;;;18.17;13.17;;;5.20;99.90;4.30;96063.00;;;;5107792;28;20214;-68
2021/04/28 02:55:25;;;;;;;17.57;13.87;;;5.20;99.90;4.30;96078.00;;;;5108094;27;20446;-68
2021/04/28 02:58:14;;;;;;;15.63;12.37;;;5.10;99.90;4.30;96060.00;;;;5106643;28;20194;-69
2021/04/28 03:01:04;;;;;;;15.10;11.30;;;5.20;99.90;4.30;96071.00;;;;5107337;28;20226;-68
2021/04/28 03:03:54;;;;;;;15.73;12.93;;;5.20;99.90;4.40;96067.00;;;;5107084;28;20198;-69
2021/04/28 03:06:45;;;;;;;13.23;11.40;;;5.50;99.90;4.30;96072.00;;;;5108077;27;20209;-68
2021/04/28 03:09:35;;;;;;;17.57;13.10;;;5.20;99.90;4.30;96074.00;;;;5105990;28;20199;-69
2021/04/28 03:12:24;;;;;;;15.70;12.33;;;5.20;99.90;4.30;96078.00;;;;5107766;28;20282;-68
2021/04/28 03:15:15;;;;;;;16.73;11.63;;;5.20;99.90;4.30;96078.00;;;;5106373;28;20194;-69
2021/04/28 03:18:03;;;;;;;14.27;12.23;;;5.20;99.90;4.30;96079.00;;;;5112258;27;20205;-69
2021/04/28 03:20:53;;;;;;;15.03;11.73;;;5.20;99.90;4.30;96073.00;;;;5106432;28;20234;-69
2021/04/28 03:23:43;;;;;;;15.93;12.20;;;5.20;99.90;4.30;96078.00;;;;5107297;28;20692;-68
2021/04/28 03:26:31;;;;;;;17.00;13.77;;;5.20;99.90;4.30;96081.00;;;;5106424;28;20205;-68
2021/04/28 03:29:19;;;;;;;15.27;13.07;;;5.20;99.90;4.30;96077.00;;;;5104672;28;20224;-68
2021/04/28 03:32:09;;;;;;;17.17;12.17;;;5.20;99.90;4.30;96083.00;;;;5107092;28;20229;-69
2021/04/28 03:34:57;;;;;;;20.73;12.17;;;5.20;99.90;4.20;96077.00;;;;5106878;28;20207;-67
2021/04/28 03:37:45;;;;;;;22.73;14.30;;;5.10;99.90;4.20;96080.00;;;;5105962;28;20206;-67
2021/04/28 03:40:34;;;;;;;18.60;13.47;;;5.10;99.90;4.20;96078.00;;;;5106138;28;20255;-68
2021/04/28 03:43:22;;;;;;;14.57;11.33;;;5.10;99.90;4.20;96083.00;;;;5106801;28;20202;-69
2021/04/28 03:46:10;;;;;;;15.67;12.47;;;5.10;99.90;4.20;96078.00;;;;5106466;28;20668;-67
2021/04/28 03:48:58;;;;;;;16.57;12.27;;;5.10;99.90;4.20;96096.00;;;;5106817;28;20425;-69
2021/04/28 03:51:47;;;;;;;19.00;12.57;;;5.10;99.90;4.10;96087.00;;;;5105256;28;20230;-69
2021/04/28 03:54:35;;;;;;;26.47;15.47;;;5.10;99.90;4.10;96091.00;;;;5106022;28;21387;-68
2021/04/28 03:57:23;;;;;;;13.90;11.87;;;5.00;99.90;4.20;96087.00;;;;5105534;28;20439;-69
2021/04/28 04:00:14;;;;;;;19.90;11.83;;;5.00;99.90;4.20;96089.00;;;;5106716;28;20452;-68
2021/04/28 04:03:04;;;;;;;18.13;13.83;;;5.00;99.90;4.30;96083.00;;;;5105181;28;20424;-67
2021/04/28 04:05:52;;;;;;;17.97;13.47;;;5.10;99.90;4.30;96094.00;;;;5105944;28;20224;-68
2021/04/28 04:08:40;;;;;;;14.17;11.37;;;5.10;99.90;4.30;96094.00;;;;5105187;28;20753;-67
2021/04/28 04:11:29;;;;;;;16.03;11.23;;;5.10;99.90;4.30;96095.00;;;;5105400;28;20468;-67
2021/04/28 04:14:18;;;;;;;13.50;11.03;;;5.20;99.90;4.30;96101.00;;;;5104149;28;20435;-69
2021/04/28 04:17:07;;;;;;;15.37;12.97;;;5.20;99.90;4.30;96108.00;;;;5105670;28;20210;-68
2021/04/28 04:19:55;;;;;;;16.33;13.30;;;5.20;99.90;4.40;96105.00;;;;5104678;28;20437;-69
2021/04/28 04:22:42;;;;;;;13.97;12.27;;;5.20;99.90;4.50;96101.00;;;;5105092;28;20473;-68
2021/04/28 04:25:30;;;;;;;17.40;11.00;;;5.20;99.90;4.50;96103.00;;;;5105029;28;20202;-67
2021/04/28 04:28:18;;;;;;;14.90;12.53;;;5.30;99.90;4.50;96094.00;;;;5105494;28;20210;-67
2021/04/28 04:31:07;;;;;;;15.20;12.10;;;5.30;99.90;4.60;96112.00;;;;5111586;27;20221;-67
2021/04/28 04:33:55;;;;;;;17.97;14.03;;;5.30;99.90;4.60;96111.00;;;;5122324;27;20266;-69
2021/04/28 04:36:43;;;;;;;16.73;12.17;;;5.40;99.90;4.60;96112.00;;;;5105643;28;20793;-69
2021/04/28 04:39:32;;;;;;;15.17;11.97;;;5.40;99.90;4.70;96114.00;;;;5117893;27;20207;-68
2021/04/28 04:42:20;;;;;;;14.13;11.27;;;5.40;99.90;4.70;96116.00;;;;5107843;28;20222;-68
2021/04/28 04:45:10;;;;;;;14.23;11.03;;;5.50;99.90;4.80;96122.00;;;;5124304;27;20220;-68
2021/04/28 04:47:59;;;;;;;16.30;12.27;;;5.50;99.90;4.70;96122.00;;;;5104311;28;20233;-68
2021/04/28 04:50:47;;;;;;;16.33;12.00;;;5.50;99.90;4.80;96115.00;;;;5103881;28;20457;-67
2021/04/28 04:53:35;;;;;;;13.10;11.47;;;5.60;99.90;4.70;96111.00;;;;5104259;28;20199;-69
2021/04/28 04:56:23;;;;;;;15.90;11.77;;;5.60;99.90;4.70;96115.00;;;;5115671;27;20213;-68
2021/04/28 04:59:11;;;;;;;15.97;12.13;;;5.60;99.90;4.80;96117.00;;;;5105535;28;20595;-68
2021/04/28 05:01:59;;;;;;;15.63;11.67;;;5.60;99.90;4.80;96113.00;;;;5117668;27;20700;-68
2021/04/28 05:04:49;;;;;;;14.50;11.80;;;5.60;99.90;4.70;96116.00;;;;5123832;27;20273;-68
2021/04/28 05:07:37;;;;;;;17.10;11.83;;;5.60;99.90;4.80;96114.00;;;;5105181;28;20213;-68
2021/04/28 05:10:25;;;;;;;14.70;11.80;;;5.60;99.90;4.90;96126.00;;;;5108433;28;20221;-69
2021/04/28 05:13:13;;;;;;;14.20;11.53;;;5.70;99.90;4.90;96115.00;;;;5120873;28;20432;-68
2021/04/28 05:16:01;;;;;;;16.17;12.53;;;5.70;99.90;4.80;96122.00;;;;5112518;28;20593;-68
2021/04/28 05:18:49;;;;;;;16.93;12.37;;;5.70;99.90;4.90;96125.00;;;;5113391;28;20202;-67
2021/04/28 05:21:38;;;;;;;17.80;12.97;;;5.70;99.90;4.80;96117.00;;;;5111905;28;20630;-68
2021/04/28 05:24:25;;;;;;;24.77;15.43;;;5.70;99.90;4.90;96134.00;;;;5103788;28;20198;-68
2021/04/28 05:27:13;;;;;;;20.27;14.37;;;5.70;99.90;4.90;96129.00;;;;5104062;28;20440;-68
2021/04/28 05:30:02;;;;;;;21.07;14.00;;;5.70;99.90;4.90;96129.00;;;;5104971;28;20614;-69
2021/04/28 05:32:50;;;;;;;20.23;14.17;;;5.70;99.90;5.10;96138.00;;;;5110857;28;20210;-67
2021/04/28 05:35:38;;;;;;;22.17;13.20;;;5.80;99.90;5.10;96132.00;;;;5113373;28;20209;-68
2021/04/28 05:38:27;;;;;;;14.87;12.63;;;5.80;99.90;5.10;96136.00;;;;5103996;28;20210;-69
2021/04/28 05:41:15;;;;;;;16.20;12.43;;;5.80;99.90;5.20;96132.00;;;;5104531;28;20614;-69
2021/04/28 05:44:04;;;;;;;14.27;10.50;;;5.90;99.90;5.20;96132.00;;;;5107459;28;20202;-69
2021/04/28 05:46:52;;;;;;;12.87;10.27;;;6.00;99.90;5.40;96131.00;;;;5110709;28;20206;-69
2021/04/28 05:49:41;;;;;;;17.87;11.67;;;5.70;99.90;5.40;96132.00;;;;5103316;28;20289;-69
2021/04/28 05:52:29;;;;;;;13.93;9.97;;;6.10;99.90;5.50;96144.00;;;;5104765;28;20234;-69
2021/04/28 05:55:19;;;;;;;12.07;10.20;;;6.10;99.90;5.60;96145.00;;;;5089700;28;20196;-68
2021/04/28 05:58:07;;;;;;;14.63;9.97;;;6.20;99.90;5.60;96135.00;;;;5087143;28;20207;-69
2021/04/28 06:00:55;;;;;;;15.87;11.37;;;5.80;99.90;5.70;96136.00;;;;5121648;27;20237;-68
2021/04/28 06:03:43;;;;;;;13.27;10.87;;;6.30;99.90;5.80;96142.00;;;;5107496;28;20198;-70
2021/04/28 06:06:31;;;;;;;14.27;10.23;;;6.40;99.90;5.90;96140.00;;;;5107881;28;20210;-68
2021/04/28 06:09:19;;;;;;;12.90;9.97;;;6.50;99.90;6.00;96143.00;;;;5108293;28;20199;-69
2021/04/28 06:12:08;;;;;;;16.13;10.43;;;6.60;99.90;6.00;96140.00;;;;5107804;28;20222;-70
2021/04/28 06:14:56;;;;;;;13.43;10.53;;;6.60;99.90;6.00;96142.00;;;;5106820;28;20263;-69
2021/04/28 06:17:45;;;;;;;13.90;10.57;;;6.70;99.90;6.00;96139.00;;;;5112346;27;20205;-69
2021/04/28 06:20:34;;;;;;;15.97;11.80;;;6.70;99.90;6.00;96141.00;;;;5106336;28;20206;-69
2021/04/28 06:23:22;;;;;;;11.37;10.20;;;6.80;99.90;6.10;96134.00;;;;5108960;28;20207;-69
2021/04/28 06:26:10;;;;;;;14.27;11.10;;;6.80;99.90;6.30;96132.00;;;;5108597;28;20206;-69
2021/04/28 06:29:00;;;;;;;12.63;11.10;;;6.90;99.90;6.30;96132.00;;;;5108487;28;20203;-68
2021/04/28 06:31:48;;;;;;;11.13;9.10;;;6.90;99.90;6.50;96136.00;;;;5108515;28;20225;-70
2021/04/28 06:34:36;;;;;;;13.53;10.47;;;7.00;99.90;6.60;96132.00;;;;5108064;28;20198;-70
2021/04/28 06:37:23;;;;;;;11.67;9.63;;;7.10;99.90;6.40;96125.00;;;;5107748;28;20744;-70
2021/04/28 06:40:13;;;;;;;11.77;10.53;;;7.20;99.90;6.80;96127.00;;;;5107955;28;20567;-70
2021/04/28 06:43:02;;;;;;;13.63;11.10;;;7.30;99.90;7.00;96135.00;;;;5081353;28;20242;-69
2021/04/28 06:45:50;;;;;;;17.53;12.10;;;7.40;99.90;7.10;96145.00;;;;5105800;28;20202;-70
2021/04/28 06:48:39;;;;;;;14.53;12.17;;;7.60;99.90;7.30;96134.00;;;;5097734;28;20219;-68
2021/04/28 06:51:27;;;;;;;13.30;11.20;;;7.70;99.90;7.50;96134.00;;;;5118878;27;20226;-68
2021/04/28 06:54:15;;;;;;;16.30;12.27;;;7.80;99.90;7.70;96131.00;;;;5120004;27;20202;-67
2021/04/28 06:57:05;;;;;;;18.83;14.13;;;8.00;99.90;7.90;96134.00;;;;5109219;27;20217;-67
2021/04/28 06:59:53;;;;;;;20.03;14.33;;;8.20;99.90;7.90;96128.00;;;;5087281;28;20203;-68
2021/04/28 07:02:42;;;;;;;22.50;15.90;;;8.30;99.90;8.10;96129.00;;;;5087328;28;20239;-67
2021/04/28 07:05:30;;;;;;;20.93;16.93;;;8.50;99.90;8.20;96122.00;;;;5105847;28;20210;-69
2021/04/28 07:08:18;;;;;;;24.20;19.80;;;8.60;99.90;8.40;96136.00;;;;5118127;27;20204;-67
2021/04/28 07:11:07;;;;;;;26.00;19.37;;;8.70;99.90;8.50;96128.00;;;;5106912;28;20223;-67
2021/04/28 07:13:55;;;;;;;25.50;18.83;;;8.90;99.90;8.60;96130.00;;;;5108282;28;20727;-67
2021/04/28 07:16:43;;;;;;;22.87;19.40;;;9.00;99.90;8.80;96131.00;;;;5106712;28;20211;-69
2021/04/28 07:19:32;;;;;;;32.77;20.80;;;9.20;99.90;8.90;96133.00;;;;5110421;27;20198;-67
2021/04/28 07:22:20;;;;;;;30.13;19.47;;;9.30;99.90;9.10;96138.00;;;;5107529;28;20579;-69
2021/04/28 07:25:09;;;;;;;23.73;17.50;;;9.40;99.90;9.30;96141.00;;;;5097551;28;20206;-68
2021/04/28 07:27:57;;;;;;;21.73;16.77;;;9.50;99.90;9.30;96146.00;;;;5108980;27;20208;-68
2021/04/28 07:30:46;;;;;;;27.27;19.20;;;9.70;99.90;9.30;96141.00;;;;5086168;28;20230;-67
2021/04/28 07:33:34;;;;;;;25.10;17.17;;;9.70;99.90;9.40;96145.00;;;;5086404;28;20210;-68
2021/04/28 07:36:23;;;;;;;25.07;17.10;;;9.80;99.90;9.40;96138.00;;;;5107364;28;20217;-68
2021/04/28 07:39:12;;;;;;;23.30;17.93;;;9.90;99.90;9.60;96141.00;;;;5107426;28;20550;-68
2021/04/28 07:42:00;;;;;;;20.07;14.87;;;10.00;99.90;9.40;96152.00;;;;5086667;28;20234;-67
2021/04/28 07:44:48;;;;;;;23.40;16.97;;;10.00;99.90;9.50;96155.00;;;;5116773;27;20552;-68
2021/04/28 07:47:36;;;;;;;27.90;17.23;;;10.00;99.90;9.60;96150.00;;;;5107369;27;20207;-67
2021/04/28 07:50:33;;;;;;;18.57;14.93;;;10.10;99.90;9.70;96155.00;;;;5106328;28;20587;-68
2021/04/28 07:53:22;;;;;;;21.53;15.40;;;10.20;99.90;9.50;96157.00;;;;5086210;28;20218;-68
2021/04/28 07:56:10;;;;;;;19.40;14.87;;;10.20;99.90;9.70;96154.00;;;;5086312;28;20666;-68
2021/04/28 07:58:58;;;;;;;27.93;18.50;;;10.20;99.90;9.70;96162.00;;;;5088996;28;20215;-69
2021/04/28 08:01:46;;;;;;;19.90;14.70;;;10.30;99.90;9.80;96160.00;;;;5093831;28;20223;-69
2021/04/28 08:04:37;;;;;;;19.67;16.83;;;10.30;99.90;9.90;96161.00;;;;5115767;27;20568;-69
2021/04/28 08:07:25;;;;;;;22.57;17.53;;;10.40;99.90;10.00;96163.00;;;;5124876;27;20204;-69
2021/04/28 08:10:14;;;;;;;19.67;15.60;;;10.50;99.90;10.10;96159.00;;;;5106971;27;20218;-69
2021/04/28 08:13:07;;;;;;;20.27;15.40;;;10.50;99.90;10.30;96163.00;;;;5110855;27;20206;-69
2021/04/28 08:15:56;;;;;;;21.20;15.17;;;10.60;99.90;10.60;96161.00;;;;5104965;28;20258;-68
2021/04/28 08:18:44;;;;;;;21.07;15.93;;;10.80;99.90;10.50;96165.00;;;;5109758;27;20203;-69
2021/04/28 08:21:32;;;;;;;25.57;18.27;;;10.90;99.90;10.40;96163.00;;;;5106022;27;20709;-69
2021/04/28 08:24:20;;;;;;;25.17;17.40;;;10.90;99.90;10.70;96164.00;;;;5105304;28;20202;-69
2021/04/28 08:27:09;;;;;;;24.30;16.90;;;11.00;99.90;11.00;96158.00;;;;5106403;28;20198;-69
2021/04/28 08:29:57;;;;;;;21.20;16.37;;;11.20;99.90;11.10;96164.00;;;;5112917;27;20208;-68
2021/04/28 08:32:46;;;;;;;19.77;15.80;;;11.30;99.90;11.10;96159.00;;;;5108403;27;20237;-68
2021/04/28 08:35:34;;;;;;;25.63;16.53;;;11.40;99.90;11.20;96169.00;;;;5111640;27;20579;-68
2021/04/28 08:38:22;;;;;;;20.37;15.87;;;11.50;99.90;11.20;96168.00;;;;5113287;27;20210;-69
2021/04/28 08:41:12;;;;;;;20.13;14.93;;;11.60;99.90;11.50;96165.00;;;;5104042;28;20253;-70
2021/04/28 08:44:03;;;;;;;19.20;15.20;;;11.70;99.90;11.40;96165.00;;;;5113230;27;20198;-70
2021/04/28 08:46:51;;;;;;;19.10;14.53;;;11.90;99.90;11.60;96168.00;;;;5112554;27;20232;-68
2021/04/28 08:49:39;;;;;;;21.40;15.00;;;11.90;99.90;11.70;96173.00;;;;5107798;27;20213;-69
2021/04/28 08:52:28;;;;;;;20.27;14.40;;;12.00;99.90;11.50;96179.00;;;;5124896;27;20217;-69
2021/04/28 08:55:16;;;;;;;19.93;15.23;;;12.10;99.90;11.30;96154.00;;;;5122742;27;20209;-69
2021/04/28 08:58:04;;;;;;;23.40;15.53;;;12.00;99.90;11.70;96165.00;;;;5119242;27;20204;-70
2021/04/28 09:00:52;;;;;;;19.07;14.67;;;12.10;99.90;11.60;96166.00;;;;5121060;27;20225;-70
2021/04/28 09:03:43;;;;;;;24.07;14.20;;;12.10;99.90;11.60;96164.00;;;;5117885;27;20232;-70
2021/04/28 09:06:33;;;;;;;18.27;13.73;;;12.10;99.90;11.80;96173.00;;;;5120117;28;20194;-70
2021/04/28 09:09:21;;;;;;;16.40;12.37;;;12.20;99.90;11.80;96175.00;;;;5120213;28;20586;-69
2021/04/28 09:12:12;;;;;;;15.53;12.17;;;12.30;99.90;12.10;96168.00;;;;5124886;28;20222;-68
2021/04/28 09:15:00;;;;;;;18.07;13.73;;;12.40;99.90;12.00;96158.00;;;;5123467;28;20198;-69
2021/04/28 09:17:52;;;;;;;18.40;12.10;;;12.50;99.90;12.30;96152.00;;;;5101580;28;20190;-70
2021/04/28 09:20:44;;;;;;;17.13;11.70;;;12.50;99.90;12.50;96158.00;;;;5100316;28;20206;-70
2021/04/28 09:23:36;;;;;;;15.70;10.33;;;12.70;99.90;12.60;96147.00;;;;5101051;28;20237;-70
2021/04/28 09:26:24;;;;;;;21.33;13.93;;;12.90;99.90;12.40;96151.00;;;;5100199;28;20233;-70
2021/04/28 09:29:20;;;;;;;18.33;11.77;;;13.00;99.90;12.50;96140.00;;;;5103800;28;20206;-70
2021/04/28 09:32:09;;;;;;;18.27;12.37;;;13.00;99.90;12.30;96142.00;;;;5122168;27;20218;-70
2021/04/28 09:35:13;;;;;;;16.87;11.93;;;13.00;99.90;12.60;96139.00;;;;5125586;27;20206;-69
2021/04/28 09:38:10;;;;;;;16.00;11.77;;;13.00;99.90;12.70;96142.00;;;;5139514;27;20205;-74
2021/04/28 09:41:00;;;;;;;15.33;11.40;;;13.10;99.90;13.00;96144.00;;;;5108032;28;20242;-68
2021/04/28 09:43:48;;;;;;;18.00;11.90;;;13.20;99.90;12.90;96144.00;;;;5090497;28;20229;-70
2021/04/28 09:46:36;;;;;;;15.87;11.90;;;13.30;99.90;13.00;96151.00;;;;5117959;27;20217;-68
2021/04/28 09:49:25;;;;;;;14.43;11.13;;;13.30;99.90;12.80;96139.00;;;;5113196;27;20220;-68
2021/04/28 09:52:16;;;;;;;14.47;10.70;;;13.40;99.90;13.00;96140.00;;;;5119629;27;20593;-70
2021/04/28 09:55:07;;;;;;;14.97;10.73;;;13.50;99.90;13.10;96151.00;;;;5108472;28;20562;-69
2021/04/28 09:57:54;;;;;;;11.30;9.10;;;13.50;99.90;12.90;96143.00;;;;5089438;28;20242;-70
2021/04/28 10:00:42;;;;;;;15.40;10.93;;;13.60;99.90;13.00;96137.00;;;;5100313;28;20522;-70
2021/04/28 10:03:44;;;;;;;14.20;10.17;;;13.50;99.90;13.10;96155.00;;;;5092288;28;20276;-71
2021/04/28 10:06:46;;;;;;;12.63;9.20;;;13.50;99.90;12.70;96141.00;;;;5122905;27;20205;-69
2021/04/28 10:09:36;;;;;;;13.87;9.10;;;13.40;99.90;13.00;96134.00;;;;5107532;28;20206;-69
2021/04/28 10:12:24;;;;;;;12.80;9.33;;;13.40;99.90;13.00;96134.00;;;;5115893;27;20222;-70
2021/04/28 10:15:13;;;;;;;14.37;9.97;;;13.40;99.90;13.20;96136.00;;;;5107935;28;20206;-68
2021/04/28 10:18:04;;;;;;;14.33;9.00;;;13.50;99.90;13.40;96133.00;;;;5110572;27;20211;-71
2021/04/28 10:20:54;;;;;;;13.77;10.20;;;13.60;99.90;13.40;96126.00;;;;5124689;27;20225;-69
2021/04/28 10:23:43;;;;;;;12.27;9.83;;;13.70;99.90;13.20;96140.00;;;;5127617;27;20226;-69
2021/04/28 10:26:33;;;;;;;12.20;9.37;;;13.70;99.90;13.50;96140.00;;;;5122254;27;20194;-71
2021/04/28 10:29:22;;;;;;;11.40;9.10;;;13.80;99.90;13.10;96127.00;;;;5122406;27;20214;-70
2021/04/28 10:32:14;;;;;;;13.10;8.40;;;13.70;97.60;13.30;96137.00;;;;5107590;27;20225;-70
2021/04/28 10:35:07;;;;;;;20.40;11.17;;;13.80;98.60;13.50;96131.00;;;;5109775;27;20206;-69
2021/04/28 10:37:56;;;;;;;13.60;10.33;;;13.80;99.90;13.00;96128.00;;;;5120564;27;20254;-70
2021/04/28 10:40:44;;;;;;;15.90;10.63;;;13.80;98.10;12.90;96123.00;;;;5107948;27;20578;-70
2021/04/28 10:43:38;;;;;;;16.80;12.27;;;13.70;97.50;13.40;96125.00;;;;5108586;28;20223;-70
2021/04/28 10:46:26;;;;;;;14.20;12.20;;;13.80;99.30;13.20;96123.00;;;;5106788;28;20203;-70
2021/04/28 10:49:34;;;;;;;12.93;10.70;;;13.80;97.80;13.30;96120.00;;;;5122390;27;20711;-70
2021/04/28 10:52:27;;;;;;;16.03;12.73;;;13.80;96.90;13.30;96117.00;;;;5109068;27;20229;-70
2021/04/28 10:55:50;;;;;;;17.80;12.40;;;13.80;97.60;13.50;96115.00;;;;5115887;27;20194;-69
2021/04/28 10:58:48;;;;;;;16.53;11.23;;;13.90;98.10;13.50;96120.00;;;;5114847;27;20205;-70
2021/04/28 11:01:36;;;;;;;16.90;12.47;;;14.00;97.40;14.10;96116.00;;;;5107661;28;20227;-71
2021/04/28 11:04:24;;;;;;;17.40;12.30;;;14.30;98.00;13.90;96116.00;;;;5108181;28;20207;-70
2021/04/28 11:07:14;;;;;;;15.07;12.03;;;14.20;96.20;13.80;96127.00;;;;5106409;28;21195;-71
2021/04/28 11:10:25;;;;;;;15.27;11.43;;;14.30;96.50;14.00;96126.00;;;;5107091;28;20228;-70
2021/04/28 11:13:17;;;;;;;15.13;11.77;;;14.30;96.90;13.60;96130.00;;;;5123219;27;20368;-69
2021/04/28 11:16:06;;;;;;;17.53;12.67;;;14.30;96.10;13.80;96120.00;;;;5122861;27;20206;-71
2021/04/28 11:19:14;;;;;;;13.53;10.80;;;14.30;95.90;14.00;96116.00;;;;5122528;27;20202;-70
2021/04/28 11:22:27;;;;;;;13.57;10.53;;;14.30;95.60;13.70;96109.00;;;;5117181;27;20226;-68
2021/04/28 11:25:21;;;;;;;16.03;11.77;;;14.30;94.30;13.90;96116.00;;;;5106787;28;20221;-69
2021/04/28 11:28:10;;;;;;;12.70;9.47;;;14.30;94.00;14.20;96112.00;;;;5108109;27;20228;-70
2021/04/28 11:30:58;;;;;;;12.27;7.77;;;14.30;93.50;14.30;96122.00;;;;5122847;27;20700;-70
2021/04/28 11:33:47;;;;;;;11.10;8.33;;;14.40;93.30;14.20;96113.00;;;;5106900;28;20196;-70
2021/04/28 11:36:38;;;;;;;13.43;10.17;;;14.50;92.00;13.90;96114.00;;;;5086103;28;20207;-68
2021/04/28 11:39:40;;;;;;;10.43;8.73;;;14.90;91.70;13.90;96099.00;;;;5085693;28;20565;-70
2021/04/28 11:42:33;;;;;;;10.43;8.63;;;14.50;91.70;13.80;96106.00;;;;5119302;27;20222;-70
2021/04/28 11:45:21;;;;;;;14.50;10.60;;;14.40;92.00;13.80;96100.00;;;;5123004;27;20581;-70
2021/04/28 11:48:17;;;;;;;15.47;9.53;;;14.40;92.20;14.00;96101.00;;;;5104325;28;20206;-69
2021/04/28 11:51:09;;;;;;;11.27;9.13;;;14.50;91.90;14.20;96103.00;;;;5117805;27;20226;-70
2021/04/28 11:54:01;;;;;;;10.77;9.03;;;14.60;92.40;14.30;96097.00;;;;5106015;28;20206;-69
2021/04/28 11:56:49;;;;;;;10.40;8.27;;;14.70;91.90;14.40;96102.00;;;;5120039;27;20689;-69
2021/04/28 11:59:38;;;;;;;12.87;9.77;;;14.80;91.10;12.90;96081.00;;;;5088265;28;20208;-72
2021/04/28 12:02:26;;;;;;;11.80;9.20;;;14.50;89.60;13.60;96101.00;;;;5113846;27;20225;-69
2021/04/28 12:05:14;;;;;;;12.20;9.17;;;14.30;92.10;13.50;96086.00;;;;5113718;27;20214;-70
2021/04/28 12:08:05;;;;;;;13.63;12.30;;;14.40;92.50;13.00;96084.00;;;;5111774;27;20217;-69
2021/04/28 12:10:55;;;;;;;12.93;10.70;;;14.20;92.30;13.50;96097.00;;;;5089441;28;20233;-68
2021/04/28 12:13:43;;;;;;;14.27;10.57;;;14.00;93.80;13.60;96101.00;;;;5119038;27;20202;-69
2021/04/28 12:16:32;;;;;;;14.17;9.83;;;14.00;92.50;13.50;96090.00;;;;5115014;27;20209;-69
2021/04/28 12:19:20;;;;;;;16.10;9.57;;;14.10;93.40;13.70;96098.00;;;;5115531;27;20251;-70
2021/04/28 12:22:10;;;;;;;12.83;10.20;;;14.20;93.70;13.60;96089.00;;;;5113821;27;20844;-69
2021/04/28 12:25:01;;;;;;;16.93;11.70;;;14.20;93.70;13.50;96093.00;;;;5123964;27;20672;-69
2021/04/28 12:27:50;;;;;;;16.73;11.07;;;14.20;93.10;12.80;96081.00;;;;5115788;27;20212;-68